Tuscumbia, Missouri
Current Conditions -  °F | °C
As of 10:15 AM on Saturday 25 Oct 2014 (Local Time) from KAIZ Reporting Station
Few Clouds Few Clouds  
Wind Chill: 66°   Ceiling: Unl
Heat Index: 66°   Visibility: 10mi
Dew Point: 61°   Wind: 6mph
Humidity: 83%   Direction: 280°W
Pressure: 30.09"   Gusts: NA
Location:  38.23°N, 92.46°W
Report Text: KAIZ 251515Z AUTO 28005KT 10SM FEW012 19/16 A3009 RMK AO1
Loading
Personal Weather Stations






























Interactive Weather Map
Tropical Storm Tracking
New forecast layout! Learn more

10-Day Weather Forecast

Advertisements
Track Severe Weather on mobile